Terminal Aerodrome Forecast
Issued by NWS

Home | Current Version | Previous Version | Text Only | Print | Product List | Glossary On
Versions: 1 2 3 4 5 6 7 8 9 10 11 12 13
000
FTUS46 KLOX 311100
TAFPMD
TAF
KPMD 311125Z 3112/0112 21006KT P6SM SKC
     FM311800 28008KT P6SM SKC
     FM312200 25016G24KT P6SM SKC
     FM010200 26012KT P6SM SKC
     FM010700 20007KT P6SM SKC=

USA.gov is the U.S. government's official web portal to all federal, state and local government web resources and services.